Time;durP1;ratioP1;P1;durP2;ratioP2;P2;SDS_P1;SDS_P2;PMS_P1;PMS_P2;Temp;Humidity;BMP_temperature;BMP_pressure;BME280_temperature;BME280_humidity;BME280_pressure;Samples;Min_cycle;Max_cycle;Signal;HPM_P1;HPM_P2
2022/02/12 00:01:02;;;;;;;;;72.33;60.00;;;;;5.00;67.05;103128.44;5073165;27;49778;-72
2022/02/12 00:03:27;;;;;;;;;81.67;62.67;;;;;4.98;66.32;103127.41;5073429;27;49830;-73
2022/02/12 00:05:53;;;;;;;;;78.67;62.33;;;;;4.49;67.03;103029.78;5073050;28;51026;-72
2022/02/12 00:08:18;;;;;;;;;78.00;63.00;;;;;4.65;66.33;103057.94;5073164;27;49802;-72
2022/02/12 00:10:44;;;;;;;;;73.67;58.33;;;;;4.60;66.37;103054.06;5073209;27;49865;-72
2022/02/12 00:13:11;;;;;;;;;72.33;58.33;;;;;4.96;66.11;103117.69;5055069;28;49812;-72
2022/02/12 00:15:40;;;;;;;;;77.00;61.33;;;;;4.60;66.66;103060.16;5072644;28;49962;-72
2022/02/12 00:18:06;;;;;;;;;69.67;59.00;;;;;4.94;66.86;103107.16;5073026;27;49774;-73
2022/02/12 00:20:31;;;;;;;;;71.00;58.00;;;;;4.66;66.60;103059.75;5073025;27;49734;-72
2022/02/12 00:22:57;;;;;;;;;76.00;59.67;;;;;4.92;66.40;103105.19;5073065;27;49861;-72
2022/02/12 00:25:22;;;;;;;;;72.00;59.00;;;;;4.92;66.95;103106.09;5075144;28;49822;-72
2022/02/12 00:27:48;;;;;;;;;76.33;59.33;;;;;4.47;66.99;103036.53;5072740;27;49837;-71
2022/02/12 00:30:13;;;;;;;;;71.33;58.33;;;;;2.84;66.86;102768.44;5072777;27;49736;-71
2022/02/12 00:32:39;;;;;;;;;67.00;53.00;;;;;3.04;66.46;102812.53;5073027;27;50072;-71
2022/02/12 00:35:04;;;;;;;;;73.33;60.67;;;;;4.85;66.91;103102.09;5072578;27;50795;-71
2022/02/12 00:37:30;;;;;;;;;69.67;56.67;;;;;4.26;66.97;103009.69;5072625;27;49850;-72
2022/02/12 00:39:59;;;;;;;;;71.00;58.00;;;;;4.16;66.43;102977.63;5072653;28;49790;-72
2022/02/12 00:42:25;;;;;;;;;75.25;59.75;;;;;4.16;67.12;102972.44;5072918;27;49755;-71
2022/02/12 00:44:51;;;;;;;;;75.67;60.67;;;;;4.88;66.87;103106.63;5072376;28;50994;-71
2022/02/12 00:47:16;;;;;;;;;78.67;59.00;;;;;4.87;66.94;103100.53;5072455;28;49637;-71
2022/02/12 00:49:42;;;;;;;;;74.33;61.33;;;;;4.74;66.76;103084.72;5072717;28;50055;-71
2022/02/12 00:52:07;;;;;;;;;76.33;61.33;;;;;4.65;66.46;103083.97;5072786;28;49752;-72
2022/02/12 00:54:33;;;;;;;;;71.67;56.33;;;;;4.68;67.01;103089.41;5072058;28;50572;-72
2022/02/12 00:56:59;;;;;;;;;75.67;59.00;;;;;4.38;66.60;103028.00;5072264;28;49814;-71
2022/02/12 00:59:25;;;;;;;;;74.00;58.67;;;;;3.74;67.05;102919.63;5072451;28;49835;-71
2022/02/12 01:01:51;;;;;;;;;72.00;57.33;;;;;4.62;66.90;103056.75;5072369;28;49707;-72
2022/02/12 01:04:16;;;;;;;;;73.00;57.67;;;;;4.64;66.85;103068.22;5072155;27;50482;-71
2022/02/12 01:06:41;;;;;;;;;70.75;57.50;;;;;3.86;66.67;102961.31;5072398;27;49698;-71
2022/02/12 01:09:07;;;;;;;;;73.75;56.25;;;;;4.64;67.45;103073.44;5072448;28;49711;-71
2022/02/12 01:11:32;;;;;;;;;72.33;58.33;;;;;4.39;67.54;103028.91;5072429;28;49858;-71
2022/02/12 01:13:58;;;;;;;;;71.00;58.00;;;;;4.00;67.13;102975.44;5071967;28;49896;-71
2022/02/12 01:16:23;;;;;;;;;70.00;58.33;;;;;4.55;67.54;103078.78;5053540;28;49117;-71
2022/02/12 01:18:49;;;;;;;;;70.00;59.00;;;;;4.56;67.11;103050.31;5072205;28;50482;-72
2022/02/12 01:21:14;;;;;;;;;77.00;62.00;;;;;4.64;67.17;103063.94;5072181;27;49795;-72
2022/02/12 01:23:40;;;;;;;;;67.67;58.00;;;;;4.45;67.12;103022.50;5071868;27;50302;-72
2022/02/12 01:26:05;;;;;;;;;80.67;59.33;;;;;4.60;67.06;103049.75;5072124;27;49801;-72
2022/02/12 01:28:31;;;;;;;;;71.33;58.67;;;;;4.57;67.18;103035.59;5071977;28;49756;-72
2022/02/12 01:30:56;;;;;;;;;72.00;58.33;;;;;4.66;67.55;103051.06;5071755;27;49916;-71
2022/02/12 01:33:22;;;;;;;;;68.33;56.67;;;;;4.18;66.85;102973.47;5071682;27;49682;-72
2022/02/12 01:35:47;;;;;;;;;76.00;61.00;;;;;4.62;67.09;103048.97;5071732;27;50049;-72
2022/02/12 01:38:13;;;;;;;;;76.33;60.00;;;;;4.40;67.90;103004.69;5071881;27;49965;-72
2022/02/12 01:40:38;;;;;;;;;70.33;59.00;;;;;4.32;67.37;102991.97;5072087;28;50032;-71
2022/02/12 01:43:07;;;;;;;;;77.00;62.00;;;;;2.87;66.97;102740.16;5071680;28;49876;-71
2022/02/12 01:45:33;;;;;;;;;67.00;55.67;;;;;2.92;67.72;102753.53;5071518;28;49763;-71
2022/02/12 01:47:59;;;;;;;;;74.67;59.00;;;;;2.74;66.75;102729.56;5071688;28;49996;-71
2022/02/12 01:50:25;;;;;;;;;78.67;60.00;;;;;4.68;67.13;103041.66;5071714;27;49852;-71
2022/02/12 01:52:51;;;;;;;;;70.67;57.67;;;;;4.64;67.55;103037.91;5071252;27;49869;-71
2022/02/12 01:55:18;;;;;;;;;71.00;58.33;;;;;4.41;67.53;102999.63;5071407;27;49766;-72
2022/02/12 01:57:44;;;;;;;;;75.67;60.33;;;;;3.69;67.91;102857.72;5053377;28;49790;-71
2022/02/12 02:00:12;;;;;;;;;74.33;58.67;;;;;4.65;67.32;103015.41;5071421;27;49790;-72
2022/02/12 02:02:38;;;;;;;;;65.33;52.67;;;;;4.00;67.60;102906.19;5071363;28;52103;-72
2022/02/12 02:05:14;;;;;;;;;77.00;61.00;;;;;3.73;67.28;102880.53;5071245;28;49897;-71
2022/02/12 02:07:42;;;;;;;;;78.00;63.00;;;;;4.14;67.01;102951.47;5052929;28;49888;-71
2022/02/12 02:10:08;;;;;;;;;74.33;58.67;;;;;4.59;67.18;103002.81;5071252;28;49594;-72
2022/02/12 02:12:34;;;;;;;;;83.33;60.00;;;;;4.60;67.58;102997.72;5052357;28;51060;-71
2022/02/12 02:15:01;;;;;;;;;83.33;62.33;;;;;4.50;67.53;102981.25;5070890;28;49821;-71
2022/02/12 02:17:26;;;;;;;;;76.67;59.00;;;;;3.97;67.65;102885.16;5071229;28;49826;-71
2022/02/12 02:19:52;;;;;;;;;78.00;61.33;;;;;4.06;67.94;102894.50;5071242;27;49615;-72
2022/02/12 02:22:24;;;;;;;;;77.00;62.00;;;;;4.35;68.11;102951.44;5070965;28;50544;-72
2022/02/12 02:24:49;;;;;;;;;74.67;60.33;;;;;4.42;67.03;102974.53;5071141;28;49924;-72
2022/02/12 02:27:15;;;;;;;;;70.67;56.00;;;;;4.49;67.24;102988.16;5070832;28;50056;-71
2022/02/12 02:29:42;;;;;;;;;74.00;59.00;;;;;4.35;67.82;102951.44;5071122;27;49996;-72
2022/02/12 02:32:09;;;;;;;;;74.67;58.67;;;;;3.35;67.83;102812.47;5070630;28;50992;-72
2022/02/12 02:34:35;;;;;;;;;70.00;57.25;;;;;4.08;68.04;102901.63;5070772;27;49835;-71
2022/02/12 02:37:00;;;;;;;;;74.67;60.00;;;;;3.91;67.53;102866.47;5052640;28;50165;-72
2022/02/12 02:39:26;;;;;;;;;76.67;62.33;;;;;4.49;68.14;102966.44;5071088;28;49666;-72
2022/02/12 02:41:51;;;;;;;;;76.00;59.67;;;;;4.09;67.50;102893.03;5070701;27;50231;-72
2022/02/12 02:44:17;;;;;;;;;78.67;61.00;;;;;4.30;67.51;102938.03;5070688;28;49782;-72
2022/02/12 02:46:42;;;;;;;;;65.33;51.67;;;;;4.19;68.54;102916.38;5070268;27;50409;-72
2022/02/12 02:49:08;;;;;;;;;73.67;54.00;;;;;3.46;68.18;102790.88;5070764;27;49791;-71
2022/02/12 02:57:03;;;;;;;;;72.00;59.25;;;;;3.48;68.00;102796.22;5070617;28;50064;-72
2022/02/12 02:59:29;;;;;;;;;76.00;59.00;;;;;3.88;68.14;102865.31;5070749;27;49909;-72
2022/02/12 03:01:54;;;;;;;;;73.33;58.33;;;;;4.31;67.89;102932.97;5070136;28;49866;-72
2022/02/12 03:04:21;;;;;;;;;68.75;57.00;;;;;3.38;68.00;102758.22;5070336;27;50348;-72
2022/02/12 03:06:46;;;;;;;;;73.00;58.33;;;;;4.29;68.11;102920.63;5070565;28;49799;-72
2022/02/12 03:09:12;;;;;;;;;74.33;58.00;;;;;3.55;67.85;102788.13;5070639;27;49957;-72
2022/02/12 03:11:37;;;;;;;;;70.00;57.33;;;;;4.07;68.13;102891.09;5070266;28;49765;-72
2022/02/12 03:14:03;;;;;;;;;71.00;56.33;;;;;4.16;68.81;102887.56;5070451;28;49988;-71
2022/02/12 03:16:28;;;;;;;;;76.50;57.25;;;;;3.89;67.71;102859.31;5070190;28;50100;-72
2022/02/12 03:18:54;;;;;;;;;64.50;52.50;;;;;4.24;68.69;102899.44;5070592;28;49759;-71
2022/02/12 03:21:19;;;;;;;;;68.00;53.33;;;;;3.76;68.32;102813.25;5069958;28;49918;-71
2022/02/12 03:23:45;;;;;;;;;72.75;56.50;;;;;4.23;68.00;102915.84;5072313;28;49961;-72
2022/02/12 03:26:12;;;;;;;;;63.75;53.00;;;;;4.07;68.06;102875.50;5055682;28;49874;-72
2022/02/12 03:28:37;;;;;;;;;64.75;53.50;;;;;4.22;67.90;102895.81;5073934;28;49813;-72
2022/02/12 03:31:03;;;;;;;;;66.25;52.00;;;;;3.90;68.36;102848.16;5066589;27;50937;-71
2022/02/12 03:33:28;;;;;;;;;60.25;51.00;;;;;3.89;67.97;102831.66;5073701;28;49886;-71
2022/02/12 03:35:54;;;;;;;;;65.75;53.00;;;;;4.23;68.01;102886.31;5073771;27;49727;-72
2022/02/12 03:38:26;;;;;;;;;68.75;55.00;;;;;4.05;67.97;102858.84;5073785;27;49747;-72
2022/02/12 03:41:02;;;;;;;;;66.50;50.00;;;;;3.99;67.52;102857.59;5073381;28;49854;-72
2022/02/12 03:43:29;;;;;;;;;61.25;51.00;;;;;4.14;67.89;102893.38;5067680;28;49824;-71
2022/02/12 03:45:57;;;;;;;;;63.25;51.25;;;;;4.15;68.33;102885.75;5073376;28;49829;-72
2022/02/12 03:48:23;;;;;;;;;60.50;51.50;;;;;3.88;68.25;102835.03;5073955;27;49769;-72
2022/02/12 03:50:48;;;;;;;;;63.50;52.00;;;;;4.05;67.88;102848.47;5073661;28;50923;-72
2022/02/12 03:53:14;;;;;;;;;56.00;47.00;;;;;2.37;67.70;102576.13;5075269;28;49832;-72
2022/02/12 03:55:40;;;;;;;;;55.50;45.75;;;;;3.88;67.77;102821.13;5072695;27;49755;-72
2022/02/12 03:58:09;;;;;;;;;57.50;45.75;;;;;4.14;67.10;102868.28;5073708;28;50158;-72
2022/02/12 04:00:34;;;;;;;;;58.75;45.75;;;;;4.12;67.00;102858.56;5072750;27;50853;-73
2022/02/12 04:03:01;;;;;;;;;60.50;48.75;;;;;3.82;67.32;102836.22;5073265;27;49915;-72
2022/02/12 04:05:27;;;;;;;;;49.75;45.50;;;;;3.78;67.30;102829.88;5073232;28;49639;-73
2022/02/12 04:07:52;;;;;;;;;63.75;51.00;;;;;3.88;67.16;102834.13;5073522;27;49695;-72
2022/02/12 04:10:18;;;;;;;;;54.25;46.75;;;;;3.90;67.93;102823.06;5072892;28;49950;-73
2022/02/12 04:12:45;;;;;;;;;50.50;45.25;;;;;4.09;67.31;102855.72;5073033;28;49889;-72
2022/02/12 04:15:12;;;;;;;;;48.50;42.75;;;;;3.90;66.85;102820.47;5072946;28;49833;-72
2022/02/12 04:17:37;;;;;;;;;45.75;40.75;;;;;4.06;67.47;102845.09;5072984;27;49821;-73
2022/02/12 04:20:08;;;;;;;;;59.50;47.25;;;;;4.03;67.88;102840.53;5072816;27;50891;-72
2022/02/12 04:22:34;;;;;;;;;53.75;44.75;;;;;3.97;66.91;102843.56;5072965;27;50049;-72
2022/02/12 04:25:03;;;;;;;;;53.00;47.00;;;;;3.87;68.07;102827.13;5073062;27;49995;-71
2022/02/12 04:27:29;;;;;;;;;52.25;46.75;;;;;3.51;68.02;102767.91;5072999;27;50256;-71
2022/02/12 04:29:54;;;;;;;;;53.00;45.50;;;;;3.89;68.34;102839.44;5072448;27;49927;-72
2022/02/12 04:32:23;;;;;;;;;54.50;45.50;;;;;3.60;66.99;102789.44;5072871;27;49678;-72
2022/02/12 04:34:50;;;;;;;;;48.75;44.75;;;;;2.75;67.00;102687.28;5072435;27;50190;-72
2022/02/12 04:37:16;;;;;;;;;56.50;48.25;;;;;3.74;67.65;102835.59;5054611;27;50183;-72
2022/02/12 04:39:42;;;;;;;;;55.50;43.50;;;;;3.31;67.48;102759.41;5072571;28;51575;-72
2022/02/12 04:42:11;;;;;;;;;47.50;43.50;;;;;3.65;67.59;102845.22;5072678;28;49737;-72
2022/02/12 04:44:39;;;;;;;;;56.50;44.75;;;;;3.65;67.67;102832.25;5072725;28;49640;-72
2022/02/12 04:47:04;;;;;;;;;49.50;44.50;;;;;3.64;67.42;102838.22;5072617;28;49798;-72
2022/02/12 04:49:33;;;;;;;;;58.25;47.00;;;;;3.42;67.17;102802.72;5054026;28;51778;-72
2022/02/12 04:51:59;;;;;;;;;46.25;42.75;;;;;3.21;68.06;102780.19;5072524;27;49878;-72
2022/02/12 04:54:24;;;;;;;;;43.25;40.50;;;;;3.57;68.68;102834.25;5072283;27;50138;-72
2022/02/12 04:56:49;;;;;;;;;46.50;43.50;;;;;3.08;68.26;102743.63;5072579;27;50140;-72
2022/02/12 04:59:16;;;;;;;;;47.50;42.25;;;;;3.48;68.43;102804.03;5072334;28;49908;-71
2022/02/12 05:01:41;;;;;;;;;50.00;44.75;;;;;2.23;67.81;102585.34;5072177;28;49707;-72
2022/02/12 05:04:06;;;;;;;;;50.75;40.50;;;;;3.54;67.54;102826.19;5072306;28;50156;-72
2022/02/12 05:06:32;;;;;;;;;47.25;42.00;;;;;2.93;68.24;102716.41;5072583;27;49870;-71
2022/02/12 05:08:57;;;;;;;;;37.00;36.25;;;;;3.26;68.33;102784.06;5072079;27;50488;-72
2022/02/12 05:11:22;;;;;;;;;48.50;42.00;;;;;3.12;68.20;102758.69;5072138;28;49801;-72
2022/02/12 05:13:48;;;;;;;;;35.75;34.00;;;;;2.96;68.33;102743.50;5072246;28;49825;-72
2022/02/12 05:16:13;;;;;;;;;44.75;41.75;;;;;2.56;68.12;102675.38;5072126;27;49894;-72
2022/02/12 05:18:38;;;;;;;;;35.50;35.50;;;;;1.62;67.76;102525.78;5071895;27;50621;-72
2022/02/12 05:21:04;;;;;;;;;49.75;37.25;;;;;3.42;67.45;102812.19;5072184;28;50045;-71
2022/02/12 05:23:29;;;;;;;;;41.25;40.75;;;;;3.32;68.26;102800.16;5072242;28;50201;-72
2022/02/12 05:25:55;;;;;;;;;32.25;29.00;;;;;2.64;67.51;102688.97;5072237;27;49600;-72
2022/02/12 05:28:20;;;;;;;;;42.00;39.25;;;;;3.41;68.13;102818.19;5071535;27;49853;-72
2022/02/12 05:30:45;;;;;;;;;46.00;38.25;;;;;2.74;68.54;102688.97;5071672;27;49621;-73
2022/02/12 05:33:11;;;;;;;;;48.25;40.50;;;;;2.67;67.75;102693.50;5071795;27;50225;-72
2022/02/12 05:35:36;;;;;;;;;43.25;39.75;;;;;3.40;67.70;102803.38;5072207;28;50029;-72
2022/02/12 05:38:02;;;;;;;;;41.75;40.50;;;;;2.89;68.05;102717.84;5071578;27;50522;-71
2022/02/12 05:40:28;;;;;;;;;35.25;34.25;;;;;3.38;68.16;102794.56;5071582;27;49784;-72
2022/02/12 05:42:54;;;;;;;;;41.00;37.75;;;;;2.23;67.97;102629.41;5071974;27;49749;-70
2022/02/12 05:45:20;;;;;;;;;38.75;37.00;;;;;3.25;67.90;102783.94;5070914;28;49762;-71
2022/02/12 05:47:46;;;;;;;;;38.25;38.25;;;;;3.27;67.28;102796.25;5071260;27;50111;-72
2022/02/12 05:50:12;;;;;;;;;48.00;40.50;;;;;3.24;67.78;102789.91;5071584;28;49966;-71
2022/02/12 05:52:37;;;;;;;;;45.50;37.00;;;;;2.85;68.17;102711.50;5071802;28;49900;-72
2022/02/12 05:55:04;;;;;;;;;40.75;35.00;;;;;2.74;67.75;102688.97;5071595;28;49608;-72
2022/02/12 05:57:29;;;;;;;;;41.50;37.00;;;;;2.27;67.60;102604.63;5071434;28;50789;-71
2022/02/12 05:59:55;;;;;;;;;43.00;36.50;;;;;3.20;68.28;102769.69;5071329;28;49856;-71
2022/02/12 06:02:20;;;;;;;;;38.00;37.00;;;;;3.12;68.10;102756.09;5071480;28;49889;-71
2022/02/12 06:04:46;;;;;;;;;44.50;43.50;;;;;3.14;68.25;102767.47;5071514;28;49728;-71
2022/02/12 06:07:12;;;;;;;;;48.00;36.75;;;;;2.76;68.11;102715.91;5071190;28;50439;-71
2022/02/12 06:09:38;;;;;;;;;47.25;40.00;;;;;3.10;68.55;102761.16;5071453;28;49913;-72
2022/02/12 06:12:04;;;;;;;;;39.50;35.25;;;;;2.85;68.02;102711.50;5071333;28;49644;-72
2022/02/12 06:14:30;;;;;;;;;42.25;36.75;;;;;2.78;68.20;102700.47;5071456;27;49794;-71
2022/02/12 06:16:58;;;;;;;;;40.75;39.00;;;;;2.45;67.71;102641.56;5070851;28;49872;-71
2022/02/12 06:19:24;;;;;;;;;36.50;36.50;;;;;1.67;67.86;102529.69;5071151;27;49781;-71
2022/02/12 06:21:49;;;;;;;;;34.25;34.25;;;;;2.17;68.47;102602.97;5071117;28;49880;-70
2022/02/12 06:24:15;;;;;;;;;44.25;39.75;;;;;3.16;68.42;102742.56;5071225;28;49631;-72
2022/02/12 06:26:46;;;;;;;;;39.50;38.00;;;;;2.67;67.86;102668.47;5070787;27;50557;-71
2022/02/12 06:29:12;;;;;;;;;47.00;40.75;;;;;2.33;67.85;102617.22;5070540;27;50011;-71
2022/02/12 06:31:37;;;;;;;;;35.50;34.25;;;;;3.07;67.65;102729.72;5052462;28;49820;-72
2022/02/12 06:34:03;;;;;;;;;43.75;38.25;;;;;2.88;68.13;102701.38;5071099;27;49763;-71
2022/02/12 06:36:29;;;;;;;;;43.50;35.75;;;;;2.45;67.59;102638.97;5070644;27;50457;-71
2022/02/12 06:38:55;;;;;;;;;45.50;37.00;;;;;2.95;68.26;102735.59;5052460;28;49899;-72
2022/02/12 06:41:20;;;;;;;;;52.25;42.25;;;;;2.78;67.77;102709.16;5071038;27;50001;-72
2022/02/12 06:43:45;;;;;;;;;45.25;42.00;;;;;2.94;68.51;102729.50;5052713;28;49835;-71
2022/02/12 06:46:13;;;;;;;;;44.25;41.00;;;;;2.65;67.69;102669.13;5070164;27;51310;-71
2022/02/12 06:48:39;;;;;;;;;39.75;36.25;;;;;2.65;68.64;102688.19;5070706;28;49944;-74
2022/02/12 06:51:05;;;;;;;;;42.50;36.75;;;;;2.89;68.76;102723.03;5035543;28;50419;-70
2022/02/12 06:53:33;;;;;;;;;59.00;43.50;;;;;2.59;67.97;102693.75;5070880;27;49810;-72
2022/02/12 06:55:59;;;;;;;;;45.75;39.50;;;;;2.29;68.10;102635.09;5070238;28;49700;-71
2022/02/12 06:58:25;;;;;;;;;43.75;41.00;;;;;2.87;67.76;102732.38;5052089;28;49795;-71
2022/02/12 07:00:50;;;;;;;;;46.75;39.75;;;;;2.60;68.65;102692.06;5070184;27;49773;-71
2022/02/12 07:03:15;;;;;;;;;48.75;42.00;;;;;2.83;68.39;102735.50;5052480;28;50175;-71
2022/02/12 07:05:41;;;;;;;;;47.25;41.00;;;;;2.47;68.80;102686.66;5070410;28;50315;-71
2022/02/12 07:08:06;;;;;;;;;56.50;44.25;;;;;2.41;68.55;102680.94;5052331;28;50160;-72
2022/02/12 07:10:34;;;;;;;;;44.00;39.00;;;;;2.61;68.71;102706.88;5070605;28;49995;-71
2022/02/12 07:13:00;;;;;;;;;42.75;39.75;;;;;1.98;68.15;102612.56;5070624;28;49882;-70
2022/02/12 07:15:25;;;;;;;;;38.75;38.25;;;;;2.75;68.27;102734.88;5069634;28;51242;-68
2022/02/12 07:17:51;;;;;;;;;42.50;39.75;;;;;1.15;68.87;102460.56;5070332;28;49819;-70
2022/02/12 07:20:16;;;;;;;;;38.25;34.75;;;;;2.71;68.87;102737.09;5070204;28;49723;-70
2022/02/12 07:22:42;;;;;;;;;46.00;39.75;;;;;0.98;68.59;102429.78;5070616;28;49774;-70
2022/02/12 07:25:09;;;;;;;;;48.75;42.00;;;;;2.12;68.24;102605.94;5070108;28;50275;-72
2022/02/12 07:27:35;;;;;;;;;42.25;35.75;;;;;2.85;68.23;102740.03;5051721;28;49960;-71
2022/02/12 07:30:01;;;;;;;;;39.50;39.00;;;;;2.63;68.23;102702.72;5070044;28;50022;-71
2022/02/12 07:32:26;;;;;;;;;48.75;38.50;;;;;2.87;68.77;102734.97;5054255;28;50015;-73
2022/02/12 07:34:51;;;;;;;;;36.75;35.50;;;;;2.82;68.83;102729.41;5056136;27;52628;-64
2022/02/12 07:37:17;;;;;;;;;42.75;40.00;;;;;2.90;67.67;102730.06;5080138;27;49988;-66
2022/02/12 07:39:42;;;;;;;;;38.50;37.25;;;;;2.65;68.68;102688.19;5071415;27;49775;-61
2022/02/12 07:42:07;;;;;;;;;45.00;36.00;;;;;2.94;68.15;102734.72;5052379;28;49850;-60
2022/02/12 07:44:33;;;;;;;;;42.25;36.50;;;;;2.96;67.89;102733.13;5073815;27;51457;-61
2022/02/12 07:46:58;;;;;;;;;32.25;29.00;;;;;2.87;68.44;102728.09;5070388;28;50131;-65
2022/02/12 07:49:24;;;;;;;;;46.75;37.75;;;;;2.42;68.09;102647.41;5070019;28;50241;-64
2022/02/12 07:51:49;;;;;;;;;40.00;39.00;;;;;2.64;68.03;102683.78;5070022;28;49785;-65
2022/02/12 07:54:14;;;;;;;;;37.00;35.75;;;;;2.99;68.14;102733.41;5072689;28;50346;-65
2022/02/12 07:56:40;;;;;;;;;40.00;35.25;;;;;3.00;67.54;102719.66;5070627;27;49869;-65
2022/02/12 07:59:05;;;;;;;;;41.25;36.50;;;;;3.05;68.71;102730.41;5076560;27;50990;-65
2022/02/12 08:01:34;;;;;;;;;42.00;39.25;;;;;2.55;67.80;102645.03;5070022;28;49791;-71
2022/02/12 08:03:59;;;;;;;;;35.75;33.75;;;;;2.77;67.69;102684.03;5045290;28;51778;-66
2022/02/12 08:09:09;;;;;;;;;46.50;40.75;;;;;3.13;67.26;102738.03;5065848;28;49771;-67
2022/02/12 08:11:37;;;;;;;;;43.25;37.50;;;;;3.19;67.73;102735.03;5079083;27;49803;-65
2022/02/12 08:14:03;;;;;;;;;40.00;37.25;;;;;3.18;67.23;102738.41;5093608;27;50703;-66
2022/02/12 08:16:29;;;;;;;;;44.50;37.50;;;;;3.09;67.50;102738.56;5073547;28;49682;-65
2022/02/12 08:18:54;;;;;;;;;39.50;33.50;;;;;3.09;67.15;102735.97;5088216;27;49762;-65
2022/02/12 08:21:19;;;;;;;;;33.50;32.75;;;;;2.97;67.14;102715.88;5079953;27;49737;-70
2022/02/12 08:23:45;;;;;;;;;34.00;30.25;;;;;3.09;68.09;102725.59;5056493;27;52357;-65
2022/02/12 08:26:10;;;;;;;;;49.00;37.50;;;;;2.88;67.56;102675.44;5067040;27;49983;-65
2022/02/12 08:28:37;;;;;;;;;33.00;33.00;;;;;3.22;68.16;102729.19;5074101;28;50140;-65
2022/02/12 08:31:02;;;;;;;;;44.00;40.50;;;;;3.18;68.02;102722.81;5074332;28;50149;-64
2022/02/12 08:33:28;;;;;;;;;42.50;38.50;;;;;3.29;67.26;102716.84;5077645;27;49789;-62
2022/02/12 08:35:53;;;;;;;;;32.50;32.50;;;;;3.35;67.80;102722.50;5080110;28;49685;-62
2022/02/12 08:38:18;;;;;;;;;40.50;37.50;;;;;3.23;67.81;102685.19;5081344;27;49765;-68
2022/02/12 08:40:44;;;;;;;;;48.25;39.75;;;;;3.33;67.81;102673.84;5079941;27;49567;-72
2022/02/12 08:43:12;;;;;;;;;39.25;36.00;;;;;3.57;66.94;102713.84;5072740;28;49817;-61
2022/02/12 08:45:37;;;;;;;;;36.00;31.25;;;;;3.68;67.20;102706.16;5072298;28;49851;-61
2022/02/12 08:48:06;;;;;;;;;19.00;16.75;;;;;3.78;65.11;102704.28;5078196;28;49842;-62
2022/02/12 08:50:31;;;;;;;;;18.25;16.00;;;;;3.90;64.18;102702.63;5079268;28;49958;-62
2022/02/12 08:52:57;;;;;;;;;15.00;12.50;;;;;3.86;64.21;102683.31;5074740;27;50403;-62
2022/02/12 08:55:24;;;;;;;;;13.25;12.75;;;;;4.11;63.92;102701.72;5071819;28;49663;-62
2022/02/12 08:57:49;;;;;;;;;13.00;12.75;;;;;4.24;63.29;102703.56;5072588;28;49843;-46
2022/02/12 09:00:15;;;;;;;;;12.00;8.75;;;;;4.32;62.98;102700.75;5075767;28;49911;-65
2022/02/12 09:02:40;;;;;;;;;15.75;14.00;;;;;4.13;61.23;102649.84;5074785;27;49811;-65
2022/02/12 09:05:06;;;;;;;;;14.50;12.50;;;;;4.51;62.03;102694.38;5072496;28;49731;-66
2022/02/12 09:07:31;;;;;;;;;17.25;16.00;;;;;4.57;61.40;102689.63;5072420;27;49949;-66
2022/02/12 09:09:58;;;;;;;;;20.50;16.50;;;;;4.60;60.23;102688.16;5072553;28;49991;-66
2022/02/12 09:12:24;;;;;;;;;16.00;13.00;;;;;4.55;60.30;102670.41;5072051;28;50624;-66
2022/02/12 09:14:49;;;;;;;;;20.50;17.50;;;;;4.76;60.49;102681.53;5072607;28;49906;-62
2022/02/12 09:17:15;;;;;;;;;19.75;16.00;;;;;4.89;59.76;102681.63;5072430;28;49569;-62
2022/02/12 09:19:40;;;;;;;;;18.75;13.25;;;;;4.88;59.20;102667.72;5074726;27;49908;-67
2022/02/12 09:22:05;;;;;;;;;17.75;12.75;;;;;5.01;58.91;102669.50;5070987;27;49773;-68
2022/02/12 09:24:31;;;;;;;;;21.00;17.00;;;;;5.00;58.91;102654.69;5072225;28;49845;-68
2022/02/12 09:26:56;;;;;;;;;12.75;12.75;;;;;5.14;58.79;102661.81;5072260;28;50079;-68
2022/02/12 09:29:21;;;;;;;;;11.00;10.00;;;;;5.14;58.62;102660.91;5072267;28;49808;-68
2022/02/12 09:31:47;;;;;;;;;21.25;16.50;;;;;5.03;57.29;102623.69;5071530;28;50528;-66
2022/02/12 09:34:13;;;;;;;;;16.50;13.75;;;;;5.21;57.10;102644.97;5053904;28;49963;-67
2022/02/12 09:36:39;;;;;;;;;17.25;14.50;;;;;5.20;56.99;102648.31;5071854;27;49699;-68
2022/02/12 09:39:04;;;;;;;;;12.75;12.75;;;;;5.25;57.19;102646.97;5071996;28;49773;-69
2022/02/12 09:41:32;;;;;;;;;14.25;13.75;;;;;5.04;56.67;102622.91;5071561;28;49788;-68
2022/02/12 09:43:58;;;;;;;;;20.00;17.00;;;;;5.16;56.89;102630.69;5071610;28;49800;-81
2022/02/12 09:46:32;;;;;;;;;20.25;18.50;;;;;5.31;57.10;102649.13;5053439;28;50225;-68
2022/02/12 09:48:59;;;;;;;;;18.00;15.00;;;;;5.34;56.47;102645.03;5072018;28;49968;-66
2022/02/12 09:51:26;;;;;;;;;21.50;18.50;;;;;5.35;56.02;102636.44;5071311;28;50889;-67
2022/02/12 09:53:52;;;;;;;;;21.50;21.50;;;;;5.43;55.95;102642.19;5074713;28;49967;-66
2022/02/12 09:56:18;;;;;;;;;21.25;17.00;;;;;5.34;56.74;102603.38;5071567;28;49700;-67
2022/02/12 09:58:43;;;;;;;;;21.25;17.25;;;;;5.41;55.49;102613.44;5071552;27;49637;-67
2022/02/12 10:01:09;;;;;;;;;17.25;14.00;;;;;5.66;55.69;102622.97;5070844;28;49793;-66
2022/02/12 10:03:35;;;;;;;;;18.75;14.50;;;;;5.75;55.90;102631.44;5071804;28;50528;-66
2022/02/12 10:06:01;;;;;;;;;17.75;17.00;;;;;5.85;55.31;102630.38;5071578;27;49695;-68
2022/02/12 10:08:26;;;;;;;;;9.25;8.75;;;;;5.69;54.35;102586.69;5071548;28;49776;-68
2022/02/12 10:10:52;;;;;;;;;14.75;10.25;;;;;5.91;54.30;102623.03;5071408;27;50616;-68
2022/02/12 10:13:20;;;;;;;;;17.25;16.50;;;;;5.88;53.77;102613.22;5071267;27;49775;-68
2022/02/12 10:15:57;;;;;;;;;17.25;14.75;;;;;5.69;52.53;102566.78;5071542;27;49971;-68
2022/02/12 10:18:25;;;;;;;;;14.75;13.00;;;;;5.24;52.59;102469.81;5070819;28;50056;-67
2022/02/12 10:20:54;;;;;;;;;11.00;10.00;;;;;5.72;51.73;102532.19;5052520;28;52970;-66
2022/02/12 10:23:22;;;;;;;;;13.25;13.25;;;;;6.18;52.32;102601.44;5052692;28;49951;-67
2022/02/12 10:25:50;;;;;;;;;13.25;13.25;;;;;6.22;51.62;102616.50;5070906;28;49613;-67
2022/02/12 10:28:18;;;;;;;;;15.00;14.00;;;;;6.19;51.80;102579.78;5071123;28;49965;-67
2022/02/12 10:30:45;;;;;;;;;14.25;12.75;;;;;6.25;51.38;102597.53;5070691;27;50277;-67
2022/02/12 10:33:11;;;;;;;;;11.75;11.25;;;;;6.14;51.41;102582.88;5070052;28;49743;-67
2022/02/12 10:35:41;;;;;;;;;10.25;8.00;;;;;6.28;51.57;102559.53;5070800;28;49680;-66
2022/02/12 10:38:10;;;;;;;;;13.25;11.50;;;;;6.38;50.95;102596.66;5070875;27;49711;-66
2022/02/12 10:40:37;;;;;;;;;10.50;10.25;;;;;6.12;50.87;102516.69;5070662;28;50522;-65
2022/02/12 10:43:03;;;;;;;;;14.75;14.25;;;;;6.55;50.94;102589.13;5071194;28;49959;-66
2022/02/12 10:45:30;;;;;;;;;16.25;12.50;;;;;6.62;51.48;102593.06;5070508;27;49661;-66
2022/02/12 10:47:58;;;;;;;;;10.00;9.50;;;;;6.41;50.22;102569.06;5070795;27;49821;-67
2022/02/12 10:50:26;;;;;;;;;11.00;11.00;;;;;4.76;49.24;102280.84;5070514;28;50687;-67
2022/02/12 10:52:56;;;;;;;;;8.00;8.00;;;;;6.24;49.27;102501.84;5070794;28;50033;-68
2022/02/12 10:55:35;;;;;;;;;11.25;10.00;;;;;6.69;49.52;102594.38;5070674;27;49710;-67
2022/02/12 10:58:08;;;;;;;;;9.25;9.25;;;;;6.71;48.73;102582.31;5070765;27;50258;-65
2022/02/12 11:00:36;;;;;;;;;9.75;9.75;;;;;4.87;48.05;102266.84;5070835;28;50941;-66
2022/02/12 11:03:09;;;;;;;;;8.50;8.50;;;;;5.89;48.45;102421.28;5070366;27;49743;-66
2022/02/12 11:05:35;;;;;;;;;10.75;8.00;;;;;6.68;48.44;102562.16;5070249;28;49766;-68
2022/02/12 11:08:03;;;;;;;;;12.50;10.75;;;;;6.57;48.37;102529.25;5070718;28;49865;-64
2022/02/12 11:10:28;;;;;;;;;13.25;9.50;;;;;6.88;48.54;102568.66;5070003;28;50247;-67
2022/02/12 11:12:57;;;;;;;;;6.00;6.00;;;;;6.95;48.20;102564.72;5070491;28;49778;-67
2022/02/12 11:15:22;;;;;;;;;10.00;7.25;;;;;6.85;47.58;102539.72;5070359;28;49725;-65
2022/02/12 11:17:48;;;;;;;;;8.00;8.00;;;;;6.99;48.35;102557.19;5070939;28;50187;-67
2022/02/12 11:20:15;;;;;;;;;10.25;10.25;;;;;7.09;48.77;102550.84;5065682;27;50325;-68